BAF607 EBBR-EGVN
Flight info
| Callsign | BAF607 |
|---|---|
| Flight time | 0h 56m |
| Altitude | 24000 |
| Route | DENUT L610 LAM L179 ICTAM Q63 ASHUM DCT NAXAT DCT BZN |
| Aircraft | A400/H-SDE2E3FGHIJ4J5M1RWXY/LB1D1 |
Departure
| Time | 2026-05-07 18:32 |
|---|---|
| Airport | Brussels Airport (EBBR) |
Arrival
| Time | 2026-05-07 19:29 |
|---|---|
| Airport | RAF Brize Norton (EGVN) |
| Time | Latitude | Longitude | Altitude | Speed | Heading |
|---|---|---|---|---|---|
| 2026-05-07 18:08 | 50.91395 | 4.49402 | 129 ft | 0 kts | 148° |
| 2026-05-07 18:29 | 50.91374 | 4.49423 | 128 ft | 8 kts | 147° |
| 2026-05-07 18:29 | 50.91367 | 4.49491 | 126 ft | 8 kts | 69° |
| 2026-05-07 18:29 | 50.91411 | 4.49653 | 127 ft | 16 kts | 65° |
| 2026-05-07 18:30 | 50.91443 | 4.49768 | 127 ft | 18 kts | 66° |
| 2026-05-07 18:30 | 50.91449 | 4.49921 | 126 ft | 11 kts | 149° |
| 2026-05-07 18:30 | 50.91398 | 4.49969 | 125 ft | 0 kts | 148° |
| 2026-05-07 18:31 | 50.91392 | 4.49975 | 126 ft | 6 kts | 148° |
| 2026-05-07 18:31 | 50.91296 | 4.50051 | 127 ft | 23 kts | 155° |
| 2026-05-07 18:31 | 50.91175 | 4.50009 | 125 ft | 20 kts | 245° |
| 2026-05-07 18:32 | 50.91070 | 4.49643 | 125 ft | 76 kts | 245° |
| 2026-05-07 18:32 | 50.90717 | 4.48420 | 205 ft | 160 kts | 245° |
| 2026-05-07 18:32 | 50.90202 | 4.46651 | 664 ft | 191 kts | 245° |
| 2026-05-07 18:32 | 50.89778 | 4.44523 | 1294 ft | 216 kts | 267° |
| 2026-05-07 18:33 | 50.90131 | 4.42165 | 1983 ft | 228 kts | 301° |
| 2026-05-07 18:33 | 50.90973 | 4.39953 | 2583 ft | 247 kts | 292° |
| 2026-05-07 18:33 | 50.91495 | 4.37301 | 3389 ft | 257 kts | 284° |
| 2026-05-07 18:33 | 50.91864 | 4.34490 | 4322 ft | 262 kts | 280° |
| 2026-05-07 18:34 | 50.92150 | 4.31621 | 5312 ft | 266 kts | 279° |
| 2026-05-07 18:34 | 50.92617 | 4.28765 | 6247 ft | 270 kts | 292° |
| 2026-05-07 18:34 | 50.93583 | 4.26196 | 6842 ft | 274 kts | 305° |
| 2026-05-07 18:34 | 50.94759 | 4.23803 | 7116 ft | 277 kts | 308° |
| 2026-05-07 18:35 | 50.96004 | 4.21384 | 7846 ft | 282 kts | 308° |
| 2026-05-07 18:35 | 50.97239 | 4.18975 | 8914 ft | 280 kts | 308° |
| 2026-05-07 18:35 | 50.98465 | 4.16560 | 9948 ft | 282 kts | 308° |
| 2026-05-07 18:35 | 50.99686 | 4.14134 | 10727 ft | 290 kts | 307° |
| 2026-05-07 18:36 | 51.00961 | 4.11588 | 11453 ft | 298 kts | 307° |
| 2026-05-07 18:36 | 51.02262 | 4.08984 | 12241 ft | 303 kts | 307° |
| 2026-05-07 18:36 | 51.03583 | 4.06333 | 13057 ft | 308 kts | 307° |
| 2026-05-07 18:36 | 51.04920 | 4.03647 | 13898 ft | 312 kts | 307° |
| 2026-05-07 18:37 | 51.06277 | 4.00916 | 14649 ft | 316 kts | 307° |
| 2026-05-07 18:37 | 51.07642 | 3.98166 | 15416 ft | 319 kts | 307° |
| 2026-05-07 18:37 | 51.09023 | 3.95381 | 16202 ft | 322 kts | 307° |
| 2026-05-07 18:37 | 51.10414 | 3.92572 | 16982 ft | 325 kts | 307° |
| 2026-05-07 18:38 | 51.11820 | 3.89731 | 17783 ft | 328 kts | 307° |
| 2026-05-07 18:38 | 51.13239 | 3.86859 | 18555 ft | 331 kts | 307° |
| 2026-05-07 18:38 | 51.14673 | 3.83954 | 19251 ft | 335 kts | 307° |
| 2026-05-07 18:38 | 51.16119 | 3.81021 | 19952 ft | 338 kts | 307° |
| 2026-05-07 18:39 | 51.17579 | 3.78055 | 20655 ft | 341 kts | 306° |
| 2026-05-07 18:39 | 51.19032 | 3.75102 | 21352 ft | 344 kts | 306° |
| 2026-05-07 18:39 | 51.20520 | 3.72074 | 22054 ft | 348 kts | 306° |
| 2026-05-07 18:39 | 51.22009 | 3.69025 | 22737 ft | 350 kts | 304° |
| 2026-05-07 18:40 | 51.23309 | 3.65708 | 23427 ft | 352 kts | 294° |
| 2026-05-07 18:40 | 51.24158 | 3.62048 | 23908 ft | 353 kts | 285° |
| 2026-05-07 18:40 | 51.24794 | 3.58255 | 24068 ft | 355 kts | 282° |
| 2026-05-07 18:40 | 51.25316 | 3.54398 | 24078 ft | 355 kts | 280° |
| 2026-05-07 18:41 | 51.25784 | 3.50530 | 24077 ft | 354 kts | 279° |
| 2026-05-07 18:41 | 51.26241 | 3.46668 | 24076 ft | 354 kts | 279° |
| 2026-05-07 18:41 | 51.26708 | 3.42801 | 24081 ft | 354 kts | 279° |
| 2026-05-07 18:41 | 51.27177 | 3.39002 | 24076 ft | 354 kts | 280° |
| 2026-05-07 18:42 | 51.27661 | 3.35155 | 24078 ft | 354 kts | 280° |
| 2026-05-07 18:42 | 51.28153 | 3.31289 | 24075 ft | 354 kts | 280° |
| 2026-05-07 18:42 | 51.28647 | 3.27439 | 24077 ft | 354 kts | 280° |
| 2026-05-07 18:42 | 51.29142 | 3.23582 | 24079 ft | 354 kts | 280° |
| 2026-05-07 18:43 | 51.29636 | 3.19722 | 24075 ft | 354 kts | 280° |
| 2026-05-07 18:43 | 51.30129 | 3.15870 | 24076 ft | 354 kts | 280° |
| 2026-05-07 18:43 | 51.30618 | 3.12024 | 24072 ft | 354 kts | 280° |
| 2026-05-07 18:43 | 51.31108 | 3.08169 | 24074 ft | 354 kts | 280° |
| 2026-05-07 18:44 | 51.31595 | 3.04311 | 24072 ft | 354 kts | 280° |
| 2026-05-07 18:44 | 51.32081 | 3.00455 | 24079 ft | 354 kts | 280° |
| 2026-05-07 18:44 | 51.32567 | 2.96589 | 24082 ft | 354 kts | 280° |
| 2026-05-07 18:44 | 51.33044 | 2.92781 | 24080 ft | 354 kts | 280° |
| 2026-05-07 18:45 | 51.33526 | 2.88924 | 24073 ft | 354 kts | 280° |
| 2026-05-07 18:45 | 51.34007 | 2.85069 | 24080 ft | 354 kts | 280° |
| 2026-05-07 18:45 | 51.34486 | 2.81216 | 24077 ft | 354 kts | 280° |
| 2026-05-07 18:45 | 51.34964 | 2.77351 | 24071 ft | 354 kts | 280° |
| 2026-05-07 18:46 | 51.35441 | 2.73500 | 24072 ft | 354 kts | 280° |
| 2026-05-07 18:46 | 51.35919 | 2.69637 | 24081 ft | 354 kts | 280° |
| 2026-05-07 18:46 | 51.36396 | 2.65772 | 24077 ft | 354 kts | 279° |
| 2026-05-07 18:46 | 51.36870 | 2.61921 | 24079 ft | 353 kts | 279° |
| 2026-05-07 18:47 | 51.37344 | 2.58058 | 24076 ft | 353 kts | 279° |
| 2026-05-07 18:47 | 51.37817 | 2.54197 | 24072 ft | 353 kts | 279° |
| 2026-05-07 18:47 | 51.38287 | 2.50339 | 24072 ft | 353 kts | 279° |
| 2026-05-07 18:47 | 51.38759 | 2.46464 | 24080 ft | 353 kts | 279° |
| 2026-05-07 18:48 | 51.39227 | 2.42607 | 24072 ft | 353 kts | 279° |
| 2026-05-07 18:48 | 51.39695 | 2.38737 | 24081 ft | 353 kts | 279° |
| 2026-05-07 18:48 | 51.40155 | 2.34924 | 24077 ft | 353 kts | 279° |
| 2026-05-07 18:48 | 51.40619 | 2.31066 | 24074 ft | 353 kts | 279° |
| 2026-05-07 18:49 | 51.41083 | 2.27199 | 24074 ft | 353 kts | 279° |
| 2026-05-07 18:49 | 51.41550 | 2.23339 | 24079 ft | 353 kts | 279° |
| 2026-05-07 18:49 | 51.42022 | 2.19473 | 24076 ft | 353 kts | 279° |
| 2026-05-07 18:49 | 51.42493 | 2.15615 | 24070 ft | 353 kts | 279° |
| 2026-05-07 18:50 | 51.42925 | 2.12078 | 24070 ft | 353 kts | 279° |
| 2026-05-07 18:50 | 51.43395 | 2.08220 | 24077 ft | 353 kts | 279° |
| 2026-05-07 18:50 | 51.43864 | 2.04356 | 24069 ft | 353 kts | 279° |
| 2026-05-07 18:50 | 51.44325 | 2.00540 | 24073 ft | 353 kts | 279° |
| 2026-05-07 18:51 | 51.44786 | 1.96679 | 24072 ft | 353 kts | 279° |
| 2026-05-07 18:51 | 51.45244 | 1.92805 | 24070 ft | 353 kts | 279° |
| 2026-05-07 18:51 | 51.45699 | 1.88940 | 24072 ft | 353 kts | 279° |
| 2026-05-07 18:51 | 51.46150 | 1.85081 | 24066 ft | 352 kts | 279° |
| 2026-05-07 18:52 | 51.46599 | 1.81203 | 23990 ft | 353 kts | 279° |
| 2026-05-07 18:52 | 51.47046 | 1.77341 | 23808 ft | 352 kts | 279° |
| 2026-05-07 18:52 | 51.47491 | 1.73481 | 23672 ft | 351 kts | 279° |
| 2026-05-07 18:52 | 51.47933 | 1.69633 | 23512 ft | 351 kts | 279° |
| 2026-05-07 18:53 | 51.48375 | 1.65779 | 23339 ft | 350 kts | 279° |
| 2026-05-07 18:53 | 51.48813 | 1.61946 | 23173 ft | 349 kts | 279° |
| 2026-05-07 18:53 | 51.49250 | 1.58117 | 23007 ft | 348 kts | 279° |
| 2026-05-07 18:53 | 51.49684 | 1.54299 | 22843 ft | 348 kts | 279° |
| 2026-05-07 18:54 | 51.50117 | 1.50480 | 22672 ft | 347 kts | 279° |
| 2026-05-07 18:54 | 51.50546 | 1.46678 | 22526 ft | 346 kts | 279° |
| 2026-05-07 18:54 | 51.50975 | 1.42874 | 22355 ft | 346 kts | 279° |
| 2026-05-07 18:54 | 51.51401 | 1.39078 | 22194 ft | 345 kts | 279° |
| 2026-05-07 18:55 | 51.51826 | 1.35289 | 22034 ft | 344 kts | 279° |
| 2026-05-07 18:55 | 51.52249 | 1.31500 | 21875 ft | 344 kts | 279° |
| 2026-05-07 18:55 | 51.52670 | 1.27719 | 21711 ft | 343 kts | 279° |
| 2026-05-07 18:55 | 51.53088 | 1.23951 | 21554 ft | 343 kts | 279° |
| 2026-05-07 18:56 | 51.53505 | 1.20179 | 21395 ft | 342 kts | 279° |
| 2026-05-07 18:56 | 51.53919 | 1.16425 | 21241 ft | 341 kts | 279° |
| 2026-05-07 18:56 | 51.54331 | 1.12677 | 21105 ft | 340 kts | 279° |
| 2026-05-07 18:56 | 51.54741 | 1.08934 | 21075 ft | 340 kts | 278° |
| 2026-05-07 18:57 | 51.55150 | 1.05190 | 21075 ft | 340 kts | 278° |
| 2026-05-07 18:57 | 51.55558 | 1.01446 | 21075 ft | 340 kts | 278° |
| 2026-05-07 18:57 | 51.55960 | 0.97743 | 21075 ft | 340 kts | 278° |
| 2026-05-07 18:57 | 51.56366 | 0.93993 | 21079 ft | 340 kts | 278° |
| 2026-05-07 18:58 | 51.56769 | 0.90250 | 21078 ft | 340 kts | 278° |
| 2026-05-07 18:58 | 51.57173 | 0.86499 | 21078 ft | 340 kts | 278° |
| 2026-05-07 18:58 | 51.57574 | 0.82752 | 21078 ft | 340 kts | 278° |
| 2026-05-07 18:58 | 51.57975 | 0.79005 | 21076 ft | 340 kts | 278° |
| 2026-05-07 18:59 | 51.58375 | 0.75253 | 21077 ft | 340 kts | 278° |
| 2026-05-07 18:59 | 51.58773 | 0.71505 | 21076 ft | 340 kts | 278° |
| 2026-05-07 18:59 | 51.59170 | 0.67755 | 21072 ft | 340 kts | 278° |
| 2026-05-07 18:59 | 51.59565 | 0.64008 | 21074 ft | 340 kts | 278° |
| 2026-05-07 19:00 | 51.59959 | 0.60263 | 21075 ft | 340 kts | 278° |
| 2026-05-07 19:00 | 51.60349 | 0.56554 | 21074 ft | 340 kts | 278° |
| 2026-05-07 19:00 | 51.60740 | 0.52804 | 21074 ft | 340 kts | 278° |
| 2026-05-07 19:00 | 51.61133 | 0.49039 | 21076 ft | 340 kts | 278° |
| 2026-05-07 19:01 | 51.61522 | 0.45288 | 21076 ft | 340 kts | 278° |
| 2026-05-07 19:01 | 51.61911 | 0.41528 | 21077 ft | 340 kts | 278° |
| 2026-05-07 19:01 | 51.62299 | 0.37767 | 21070 ft | 340 kts | 278° |
| 2026-05-07 19:01 | 51.62685 | 0.34011 | 21051 ft | 341 kts | 278° |
| 2026-05-07 19:02 | 51.63070 | 0.30252 | 20800 ft | 340 kts | 278° |
| 2026-05-07 19:02 | 51.63454 | 0.26497 | 20545 ft | 339 kts | 278° |
| 2026-05-07 19:02 | 51.63830 | 0.22806 | 20304 ft | 338 kts | 278° |
| 2026-05-07 19:02 | 51.64208 | 0.19078 | 20045 ft | 337 kts | 277° |
| 2026-05-07 19:03 | 51.64353 | 0.15326 | 19794 ft | 334 kts | 266° |
| 2026-05-07 19:03 | 51.64177 | 0.11602 | 19555 ft | 333 kts | 263° |
| 2026-05-07 19:03 | 51.63881 | 0.07908 | 19315 ft | 332 kts | 261° |
| 2026-05-07 19:03 | 51.63514 | 0.04252 | 19071 ft | 331 kts | 259° |
| 2026-05-07 19:04 | 51.63112 | 0.00614 | 18823 ft | 330 kts | 259° |
| 2026-05-07 19:04 | 51.62698 | -0.03012 | 18591 ft | 329 kts | 258° |
| 2026-05-07 19:04 | 51.62286 | -0.06624 | 18354 ft | 328 kts | 259° |
| 2026-05-07 19:04 | 51.61880 | -0.10232 | 18078 ft | 327 kts | 259° |
| 2026-05-07 19:05 | 51.61515 | -0.13840 | 17807 ft | 326 kts | 260° |
| 2026-05-07 19:05 | 51.61195 | -0.17460 | 17535 ft | 325 kts | 261° |
| 2026-05-07 19:05 | 51.60900 | -0.21061 | 17271 ft | 324 kts | 261° |
| 2026-05-07 19:05 | 51.60615 | -0.24650 | 17007 ft | 323 kts | 261° |
| 2026-05-07 19:06 | 51.60330 | -0.28231 | 16748 ft | 322 kts | 261° |
| 2026-05-07 19:06 | 51.59753 | -0.35347 | 16203 ft | 320 kts | 261° |
| 2026-05-07 19:06 | 51.59460 | -0.38889 | 16063 ft | 318 kts | 261° |
| 2026-05-07 19:07 | 51.59165 | -0.42410 | 16051 ft | 318 kts | 261° |
| 2026-05-07 19:07 | 51.58871 | -0.45899 | 16049 ft | 318 kts | 261° |
| 2026-05-07 19:07 | 51.58572 | -0.49425 | 16046 ft | 318 kts | 261° |
| 2026-05-07 19:07 | 51.58272 | -0.52951 | 16046 ft | 318 kts | 261° |
| 2026-05-07 19:08 | 51.57972 | -0.56474 | 16046 ft | 318 kts | 261° |
| 2026-05-07 19:08 | 51.57670 | -0.60003 | 16045 ft | 318 kts | 261° |
| 2026-05-07 19:08 | 51.57367 | -0.63525 | 16043 ft | 318 kts | 261° |
| 2026-05-07 19:08 | 51.57064 | -0.67049 | 16042 ft | 318 kts | 261° |
| 2026-05-07 19:09 | 51.56759 | -0.70568 | 16046 ft | 318 kts | 261° |
| 2026-05-07 19:09 | 51.56454 | -0.74087 | 16040 ft | 318 kts | 261° |
| 2026-05-07 19:09 | 51.56147 | -0.77610 | 16050 ft | 318 kts | 261° |
| 2026-05-07 19:09 | 51.55840 | -0.81128 | 16047 ft | 318 kts | 261° |
| 2026-05-07 19:10 | 51.55534 | -0.84607 | 16044 ft | 318 kts | 261° |
| 2026-05-07 19:10 | 51.55225 | -0.88121 | 16050 ft | 318 kts | 261° |
| 2026-05-07 19:10 | 51.54915 | -0.91636 | 16045 ft | 318 kts | 261° |
| 2026-05-07 19:10 | 51.54603 | -0.95157 | 16045 ft | 318 kts | 260° |
| 2026-05-07 19:11 | 51.54290 | -0.98671 | 16053 ft | 317 kts | 260° |
| 2026-05-07 19:11 | 51.53977 | -1.02181 | 16048 ft | 317 kts | 260° |
| 2026-05-07 19:11 | 51.53662 | -1.05700 | 16045 ft | 317 kts | 260° |
| 2026-05-07 19:11 | 51.53347 | -1.09206 | 16051 ft | 317 kts | 260° |
| 2026-05-07 19:12 | 51.52936 | -1.12683 | 16045 ft | 316 kts | 253° |
| 2026-05-07 19:12 | 51.52152 | -1.15962 | 16052 ft | 315 kts | 242° |
| 2026-05-07 19:12 | 51.50953 | -1.18899 | 16040 ft | 315 kts | 234° |
| 2026-05-07 19:12 | 51.49944 | -1.22002 | 16042 ft | 316 kts | 250° |
| 2026-05-07 19:13 | 51.49607 | -1.25476 | 16042 ft | 318 kts | 271° |
| 2026-05-07 19:13 | 51.50176 | -1.28904 | 16056 ft | 322 kts | 294° |
| 2026-05-07 19:13 | 51.51131 | -1.32110 | 16047 ft | 322 kts | 290° |
| 2026-05-07 19:13 | 51.51980 | -1.35447 | 16039 ft | 322 kts | 289° |
| 2026-05-07 19:14 | 51.52523 | -1.37713 | 16037 ft | 322 kts | 288° |
| 2026-05-07 19:14 | 51.53537 | -1.42199 | 15935 ft | 323 kts | 287° |
| 2026-05-07 19:14 | 51.54030 | -1.44469 | 15753 ft | 322 kts | 287° |
| 2026-05-07 19:14 | 51.54754 | -1.47866 | 15502 ft | 321 kts | 287° |
| 2026-05-07 19:15 | 51.55471 | -1.51266 | 15253 ft | 320 kts | 287° |
| 2026-05-07 19:15 | 51.56183 | -1.54646 | 15006 ft | 319 kts | 286° |
| 2026-05-07 19:15 | 51.56893 | -1.58018 | 14768 ft | 318 kts | 287° |
| 2026-05-07 19:15 | 51.57602 | -1.61372 | 14526 ft | 316 kts | 287° |
| 2026-05-07 19:16 | 51.58230 | -1.64748 | 14286 ft | 314 kts | 280° |
| 2026-05-07 19:16 | 51.58634 | -1.68203 | 14047 ft | 313 kts | 277° |
| 2026-05-07 19:16 | 51.58951 | -1.71607 | 13807 ft | 311 kts | 275° |
| 2026-05-07 19:16 | 51.59221 | -1.75051 | 13535 ft | 310 kts | 275° |
| 2026-05-07 19:17 | 51.59464 | -1.78485 | 13263 ft | 308 kts | 274° |
| 2026-05-07 19:17 | 51.59790 | -1.81891 | 12999 ft | 308 kts | 282° |
| 2026-05-07 19:17 | 51.60522 | -1.85125 | 12730 ft | 309 kts | 295° |
| 2026-05-07 19:17 | 51.61753 | -1.87965 | 12470 ft | 311 kts | 311° |
| 2026-05-07 19:18 | 51.63449 | -1.90113 | 12192 ft | 313 kts | 328° |
| 2026-05-07 19:18 | 51.65455 | -1.91507 | 11821 ft | 313 kts | 339° |
| 2026-05-07 19:18 | 51.67544 | -1.92516 | 11436 ft | 312 kts | 343° |
| 2026-05-07 19:18 | 51.69686 | -1.93061 | 11056 ft | 312 kts | 357° |
| 2026-05-07 19:19 | 51.71819 | -1.92540 | 10689 ft | 311 kts | 15° |
| 2026-05-07 19:19 | 51.73834 | -1.91400 | 10329 ft | 309 kts | 20° |
| 2026-05-07 19:19 | 51.75809 | -1.90180 | 9950 ft | 299 kts | 20° |
| 2026-05-07 19:19 | 51.77736 | -1.88976 | 9540 ft | 295 kts | 20° |
| 2026-05-07 19:20 | 51.79644 | -1.87786 | 9139 ft | 292 kts | 20° |
| 2026-05-07 19:20 | 51.81514 | -1.86537 | 8741 ft | 290 kts | 28° |
| 2026-05-07 19:20 | 51.83007 | -1.84399 | 8346 ft | 288 kts | 55° |
| 2026-05-07 19:20 | 51.83865 | -1.81739 | 7976 ft | 286 kts | 68° |
| 2026-05-07 19:21 | 51.84561 | -1.78745 | 7601 ft | 284 kts | 73° |
| 2026-05-07 19:21 | 51.85098 | -1.75684 | 7212 ft | 282 kts | 76° |
| 2026-05-07 19:21 | 51.85593 | -1.72630 | 6840 ft | 280 kts | 76° |
| 2026-05-07 19:21 | 51.86075 | -1.69636 | 6470 ft | 277 kts | 76° |
| 2026-05-07 19:22 | 51.86559 | -1.66628 | 6074 ft | 275 kts | 76° |
| 2026-05-07 19:22 | 51.87040 | -1.63639 | 5685 ft | 273 kts | 76° |
| 2026-05-07 19:22 | 51.87519 | -1.60679 | 5292 ft | 271 kts | 76° |
| 2026-05-07 19:22 | 51.87998 | -1.57739 | 4912 ft | 269 kts | 76° |
| 2026-05-07 19:23 | 51.88474 | -1.54813 | 4519 ft | 267 kts | 76° |
| 2026-05-07 19:23 | 51.88943 | -1.51924 | 4141 ft | 265 kts | 76° |
| 2026-05-07 19:23 | 51.89411 | -1.49043 | 3798 ft | 264 kts | 76° |
| 2026-05-07 19:23 | 51.89877 | -1.46163 | 3467 ft | 263 kts | 76° |
| 2026-05-07 19:24 | 51.90297 | -1.43335 | 3131 ft | 261 kts | 83° |
| 2026-05-07 19:24 | 51.90077 | -1.40491 | 2996 ft | 256 kts | 114° |
| 2026-05-07 19:24 | 51.89021 | -1.38222 | 2993 ft | 254 kts | 142° |
| 2026-05-07 19:24 | 51.87510 | -1.36751 | 2995 ft | 255 kts | 154° |
| 2026-05-07 19:25 | 51.85911 | -1.35507 | 2996 ft | 255 kts | 155° |
| 2026-05-07 19:25 | 51.84236 | -1.34701 | 2845 ft | 247 kts | 176° |
| 2026-05-07 19:25 | 51.82526 | -1.34880 | 2304 ft | 248 kts | 188° |
| 2026-05-07 19:25 | 51.80825 | -1.35403 | 2026 ft | 249 kts | 199° |
| 2026-05-07 19:26 | 51.79469 | -1.36969 | 1984 ft | 233 kts | 229° |
| 2026-05-07 19:26 | 51.78573 | -1.39093 | 1984 ft | 224 kts | 242° |
| 2026-05-07 19:26 | 51.78079 | -1.41359 | 1993 ft | 208 kts | 254° |
| 2026-05-07 19:26 | 51.77721 | -1.43539 | 1919 ft | 196 kts | 252° |
| 2026-05-07 19:27 | 51.77330 | -1.45610 | 1666 ft | 185 kts | 251° |
| 2026-05-07 19:27 | 51.76974 | -1.47525 | 1395 ft | 170 kts | 251° |
| 2026-05-07 19:27 | 51.76661 | -1.49241 | 1158 ft | 149 kts | 251° |
| 2026-05-07 19:27 | 51.76377 | -1.50784 | 961 ft | 141 kts | 252° |
| 2026-05-07 19:28 | 51.76093 | -1.52284 | 759 ft | 136 kts | 252° |
| 2026-05-07 19:28 | 51.75837 | -1.53712 | 542 ft | 129 kts | 253° |
| 2026-05-07 19:28 | 51.75589 | -1.55108 | 393 ft | 128 kts | 253° |
| 2026-05-07 19:28 | 51.75333 | -1.56480 | 295 ft | 128 kts | 252° |
| 2026-05-07 19:29 | 51.75104 | -1.57725 | 280 ft | 89 kts | 252° |
| 2026-05-07 19:29 | 51.75081 | -1.58086 | 282 ft | 0 kts | 338° |
| 2026-05-07 19:29 | 51.75088 | -1.58088 | 282 ft | 3 kts | 346° |
| 2026-05-07 19:29 | 51.75120 | -1.58073 | 282 ft | 7 kts | 28° |
| 2026-05-07 19:30 | 51.75191 | -1.58013 | 283 ft | 15 kts | 27° |
| 2026-05-07 19:30 | 51.75303 | -1.57919 | 280 ft | 21 kts | 28° |
| 2026-05-07 19:30 | 51.75442 | -1.57800 | 279 ft | 23 kts | 28° |
| 2026-05-07 19:30 | 51.75555 | -1.57668 | 277 ft | 12 kts | 82° |
| 2026-05-07 19:31 | 51.75533 | -1.57582 | 278 ft | 0 kts | 118° |